sim
Sign-in with your pilot id or email,
or register
Callsign
Passwort

Schedule Details

Flight Number: OEO2845
Departure: Cairo International Airport (HECA) at 16:45
Arrival: Munich Airport (EDDM) at 20:55

Weather Information
Getting current METAR information for HECA 220130Z 07015KT CAVOK 25/20 Q1012 NOSIG
Getting current METAR information for EDDM 220150Z 33002KT 3000 1100N R08L/0600N R08R/0800U BCFG NSC 08/08 Q1014 TEMPO 2500

Schedule Frequency

Route Map